createdAt,value
2023-05-09T00:00:06.852Z,3.60
2023-05-09T00:03:02.345Z,1.20
2023-05-09T00:05:30.458Z,1.58
2023-05-09T00:07:58.572Z,2.03
2023-05-09T00:10:26.549Z,2.33
2023-05-09T00:12:54.636Z,1.23
2023-05-09T00:15:23.966Z,2.38
2023-05-09T00:17:52.054Z,0.98
2023-05-09T00:20:21.760Z,1.70
2023-05-09T00:22:49.884Z,1.35
2023-05-09T00:25:18.164Z,3.00
2023-05-09T00:29:00.356Z,0.80
2023-05-09T00:31:53.681Z,1.23
2023-05-09T00:34:21.710Z,0.75
2023-05-09T00:36:51.153Z,0.65
2023-05-09T00:39:19.187Z,3.65
2023-05-09T00:41:47.262Z,3.17
2023-05-09T00:44:15.232Z,0.60
2023-05-09T00:46:43.326Z,0.73
2023-05-09T00:49:12.393Z,1.50
2023-05-09T00:51:41.948Z,1.27
2023-05-09T00:54:12.100Z,0.52
2023-05-09T00:56:40.553Z,1.08
2023-05-09T00:59:08.667Z,1.60
2023-05-09T01:01:36.740Z,0.60
2023-05-09T01:04:05.493Z,1.55
2023-05-09T01:06:39.848Z,0.60
2023-05-09T01:09:20.546Z,0.60
2023-05-09T01:11:59.833Z,0.65
2023-05-09T01:14:38.499Z,2.08
2023-05-09T01:17:13.391Z,0.60
2023-05-09T01:19:58.392Z,1.70
2023-05-09T01:22:32.020Z,0.80
2023-05-09T01:25:11.748Z,0.75
2023-05-09T01:27:49.764Z,0.70
2023-05-09T01:30:21.144Z,1.00
2023-05-09T01:32:52.498Z,0.75
2023-05-09T01:35:26.956Z,0.82
2023-05-09T01:37:55.966Z,0.93
2023-05-09T01:40:26.914Z,0.80
2023-05-09T01:42:59.493Z,1.27
2023-05-09T01:45:30.494Z,1.13
2023-05-09T01:47:59.922Z,1.25
2023-05-09T01:50:30.590Z,0.82
2023-05-09T01:53:01.475Z,1.90
2023-05-09T01:58:02.397Z,0.77
2023-05-09T02:00:33.269Z,1.48
2023-05-09T02:03:03.311Z,0.95
2023-05-09T02:05:32.794Z,0.70
2023-05-09T02:08:01.134Z,2.50
2023-05-09T02:10:29.744Z,0.70
2023-05-09T02:12:59.073Z,0.50
2023-05-09T02:15:27.626Z,0.63
2023-05-09T02:17:57.359Z,1.10
2023-05-09T02:20:25.381Z,1.17
2023-05-09T02:22:53.360Z,0.60
2023-05-09T02:25:21.541Z,0.85
2023-05-09T02:27:49.977Z,0.68
2023-05-09T02:30:25.370Z,0.77
2023-05-09T02:32:58.031Z,2.17
2023-05-09T02:35:28.320Z,0.80
2023-05-09T02:37:58.174Z,0.80
2023-05-09T02:40:28.095Z,0.80
2023-05-09T02:42:56.496Z,0.70
2023-05-09T02:45:24.672Z,0.90
2023-05-09T02:47:52.932Z,1.05
2023-05-09T02:50:22.580Z,0.95
2023-05-09T02:52:50.566Z,0.90
2023-05-09T02:55:18.701Z,0.80
2023-05-09T02:57:46.804Z,3.50
2023-05-09T03:00:15.842Z,1.92
2023-05-09T03:02:43.972Z,2.05
2023-05-09T03:05:17.746Z,0.82
2023-05-09T03:07:47.435Z,2.35
2023-05-09T03:10:15.451Z,1.10
2023-05-09T03:12:44.727Z,1.00
2023-05-09T03:15:13.743Z,1.20
2023-05-09T03:17:43.291Z,1.00
2023-05-09T03:20:12.831Z,1.90
2023-05-09T03:23:31.809Z,1.58
2023-05-09T03:26:01.487Z,1.40
2023-05-09T03:28:30.062Z,1.43
2023-05-09T03:31:01.731Z,1.38
2023-05-09T03:33:31.341Z,1.20
2023-05-09T03:36:01.770Z,0.80
2023-05-09T03:38:29.810Z,0.93
2023-05-09T03:40:57.836Z,0.98
2023-05-09T03:43:28.564Z,2.65
2023-05-09T03:45:56.625Z,3.38
2023-05-09T03:48:26.785Z,1.48
2023-05-09T03:50:54.857Z,2.58
2023-05-09T03:53:24.866Z,1.47
2023-05-09T03:55:54.735Z,4.60
2023-05-09T03:58:23.770Z,1.10
2023-05-09T04:00:53.733Z,1.30
2023-05-09T04:03:24.365Z,1.90
2023-05-09T04:05:54.817Z,2.40
2023-05-09T04:08:36.802Z,1.35
2023-05-09T04:11:06.280Z,1.67
2023-05-09T04:13:35.163Z,2.15
2023-05-09T04:16:09.704Z,1.70
2023-05-09T04:18:40.030Z,1.90
2023-05-09T04:21:08.134Z,2.28
2023-05-09T04:23:36.406Z,4.15
2023-05-09T04:26:04.686Z,1.70
2023-05-09T04:28:32.875Z,4.80
2023-05-09T04:31:01.122Z,2.53
2023-05-09T04:33:32.950Z,1.40
2023-05-09T04:36:03.649Z,2.05
2023-05-09T04:38:31.710Z,1.98
2023-05-09T04:41:01.213Z,2.75
2023-05-09T04:43:29.960Z,3.50
2023-05-09T04:45:58.074Z,2.17
2023-05-09T04:48:26.347Z,2.17
2023-05-09T04:50:55.730Z,2.72
2023-05-09T04:53:23.706Z,2.50
2023-05-09T04:55:53.300Z,3.33
2023-05-09T04:58:22.361Z,4.55
2023-05-09T05:00:51.423Z,2.65
2023-05-09T05:03:20.078Z,3.42
2023-05-09T05:05:48.374Z,4.00
2023-05-09T05:08:18.178Z,4.60
2023-05-09T05:10:47.563Z,3.90
2023-05-09T05:13:17.052Z,5.25
2023-05-09T05:15:49.795Z,5.60
2023-05-09T05:18:18.218Z,5.97
2023-05-09T05:25:32.846Z,5.85
2023-05-09T05:30:32.753Z,6.90
2023-05-09T05:33:02.650Z,8.32
2023-05-09T05:35:30.892Z,7.43
2023-05-09T05:37:59.153Z,8.20
2023-05-09T05:40:39.800Z,7.80
2023-05-09T05:43:09.295Z,6.95
2023-05-09T05:45:39.691Z,7.75
2023-05-09T05:48:11.010Z,6.78
2023-05-09T05:50:39.441Z,10.23
2023-05-09T05:53:07.664Z,13.43
2023-05-09T05:55:37.841Z,7.25
2023-05-09T05:58:07.178Z,7.45
2023-05-09T06:01:02.162Z,7.63
2023-05-09T06:03:31.950Z,8.15
2023-05-09T06:06:03.769Z,9.60
2023-05-09T06:08:32.562Z,10.13
2023-05-09T06:11:03.171Z,8.50
2023-05-09T06:13:31.186Z,8.75
2023-05-09T06:16:18.579Z,8.18
2023-05-09T06:18:50.947Z,8.75
2023-05-09T06:21:19.994Z,9.77
2023-05-09T06:24:05.095Z,10.45
2023-05-09T06:26:37.725Z,10.10
2023-05-09T06:29:06.506Z,10.20
2023-05-09T06:31:36.078Z,13.00
2023-05-09T06:34:04.370Z,9.85
2023-05-09T06:36:33.607Z,13.40
2023-05-09T06:39:02.092Z,8.68
2023-05-09T06:41:30.170Z,11.75
2023-05-09T06:43:59.768Z,9.73
2023-05-09T06:46:27.849Z,11.15
2023-05-09T06:48:55.891Z,12.02
2023-05-09T06:51:23.990Z,11.15
2023-05-09T06:53:52.000Z,11.95
2023-05-09T06:56:23.135Z,11.48
2023-05-09T06:58:51.194Z,14.93
2023-05-09T07:01:20.860Z,12.43
2023-05-09T07:03:48.950Z,14.60
2023-05-09T07:06:17.620Z,11.18
2023-05-09T07:08:46.035Z,11.65
2023-05-09T07:11:14.152Z,11.48
2023-05-09T07:13:42.134Z,9.45
2023-05-09T07:16:10.227Z,13.38
2023-05-09T07:18:39.690Z,13.43
2023-05-09T07:21:07.832Z,12.68
2023-05-09T07:23:35.912Z,11.85
2023-05-09T07:26:04.007Z,12.13
2023-05-09T07:28:32.197Z,13.35
2023-05-09T07:31:00.364Z,11.93
2023-05-09T07:33:28.398Z,11.15
2023-05-09T07:35:59.554Z,15.88
2023-05-09T07:38:27.862Z,11.27
2023-05-09T07:40:56.043Z,15.30
2023-05-09T07:43:24.121Z,11.00
2023-05-09T07:45:52.170Z,12.85
2023-05-09T07:48:20.422Z,17.75
2023-05-09T07:50:48.413Z,17.20
2023-05-09T07:53:17.850Z,15.05
2023-05-09T07:55:48.455Z,15.35
2023-05-09T07:58:16.657Z,16.63
2023-05-09T08:00:44.690Z,23.38
2023-05-09T08:03:12.997Z,17.25
2023-05-09T08:05:41.149Z,10.60
2023-05-09T08:08:09.202Z,10.13
2023-05-09T08:10:38.656Z,11.13
2023-05-09T08:13:06.766Z,8.25
2023-05-09T08:15:35.078Z,8.70
2023-05-09T08:18:03.276Z,11.18
2023-05-09T08:20:31.877Z,10.20
2023-05-09T08:22:59.942Z,9.70
2023-05-09T08:25:28.083Z,11.48
2023-05-09T08:27:57.444Z,13.73
2023-05-09T08:30:25.613Z,9.68
2023-05-09T08:32:53.837Z,9.85
2023-05-09T08:35:21.941Z,9.32
2023-05-09T08:37:50.035Z,14.02
2023-05-09T08:40:18.440Z,11.63
2023-05-09T08:42:46.941Z,9.48
2023-05-09T08:45:18.278Z,8.70
2023-05-09T08:47:46.863Z,8.63
2023-05-09T08:50:17.476Z,7.18
2023-05-09T08:52:46.091Z,8.90
2023-05-09T08:55:18.181Z,13.43
2023-05-09T08:57:47.710Z,6.57
2023-05-09T09:00:21.017Z,8.77
2023-05-09T09:02:50.982Z,7.97
2023-05-09T09:05:40.234Z,6.27
2023-05-09T09:08:14.745Z,7.72
2023-05-09T09:10:47.486Z,5.60
2023-05-09T09:13:18.774Z,6.75
2023-05-09T09:15:54.617Z,6.15
2023-05-09T09:18:25.208Z,13.27
2023-05-09T09:20:57.802Z,17.05
2023-05-09T09:23:27.435Z,8.80
2023-05-09T09:26:00.055Z,9.13
2023-05-09T09:28:28.763Z,14.40
2023-05-09T09:30:58.529Z,13.25
2023-05-09T09:33:30.033Z,13.25
2023-05-09T09:35:59.869Z,14.52
2023-05-09T09:38:28.303Z,11.50
2023-05-09T09:40:56.999Z,9.60
2023-05-09T09:43:29.535Z,5.78
2023-05-09T09:46:02.898Z,5.45
2023-05-09T09:48:34.021Z,5.78
2023-05-09T09:51:09.521Z,5.90
2023-05-09T09:53:40.876Z,6.88
2023-05-09T09:56:10.185Z,6.72
2023-05-09T09:58:38.802Z,9.10
2023-05-09T10:01:09.863Z,6.18
2023-05-09T10:03:39.786Z,6.63
2023-05-09T10:06:12.734Z,6.10
2023-05-09T10:08:41.268Z,3.97
2023-05-09T10:11:10.981Z,4.82
2023-05-09T10:13:39.871Z,5.32
2023-05-09T10:16:10.341Z,5.78
2023-05-09T10:18:40.788Z,6.85
2023-05-09T10:21:17.888Z,4.10
2023-05-09T10:23:52.679Z,5.70
2023-05-09T10:26:27.647Z,5.32
2023-05-09T10:28:59.922Z,4.63
2023-05-09T10:31:37.038Z,11.75
2023-05-09T10:34:18.056Z,6.18
2023-05-09T10:36:49.506Z,9.60
2023-05-09T10:39:26.643Z,6.88
2023-05-09T10:41:55.325Z,10.57
2023-05-09T10:44:26.438Z,4.97
2023-05-09T10:46:57.013Z,4.25
2023-05-09T10:49:25.294Z,6.00
2023-05-09T10:51:56.877Z,7.15
2023-05-09T10:54:31.061Z,4.00
2023-05-09T10:57:00.040Z,7.47
2023-05-09T10:59:38.586Z,10.32
2023-05-09T11:02:14.192Z,8.57
2023-05-09T11:04:44.225Z,5.78
2023-05-09T11:07:41.391Z,5.10
2023-05-09T11:10:19.192Z,5.95
2023-05-09T11:13:15.870Z,4.03
2023-05-09T11:34:48.912Z,6.70
2023-05-09T12:05:08.923Z,6.95
2023-05-09T13:03:55.198Z,8.73
2023-05-09T13:25:46.102Z,8.43
2023-05-09T13:29:07.966Z,11.27
2023-05-09T13:31:45.895Z,6.75
2023-05-09T13:34:25.678Z,5.53
2023-05-09T13:36:59.241Z,11.63
2023-05-09T13:39:29.194Z,7.10
2023-05-09T13:42:07.064Z,8.65
2023-05-09T13:44:39.030Z,4.95
2023-05-09T13:47:08.209Z,6.28
2023-05-09T13:49:41.627Z,7.32
2023-05-09T13:52:17.488Z,6.03
2023-05-09T14:04:43.084Z,5.32
2023-05-09T14:07:52.456Z,12.15
2023-05-09T14:10:47.660Z,8.13
2023-05-09T14:13:48.035Z,5.15
2023-05-09T14:16:25.188Z,7.53
2023-05-09T14:19:00.430Z,8.77
2023-05-09T14:21:29.104Z,7.75
2023-05-09T14:23:59.523Z,5.75
2023-05-09T14:26:59.045Z,6.63
2023-05-09T14:29:28.030Z,6.53
2023-05-09T14:32:03.279Z,7.78
2023-05-09T14:34:35.675Z,9.35
2023-05-09T14:37:07.149Z,5.97
2023-05-09T14:39:36.800Z,9.38
2023-05-09T14:42:05.892Z,9.52
2023-05-09T14:44:33.993Z,6.97
2023-05-09T14:47:02.226Z,8.50
2023-05-09T14:49:30.373Z,8.38
2023-05-09T14:51:59.823Z,10.52
2023-05-09T14:54:28.018Z,6.30
2023-05-09T14:56:56.199Z,9.52
2023-05-09T14:59:24.376Z,10.65
2023-05-09T15:02:17.698Z,6.95
2023-05-09T15:04:45.760Z,8.63
2023-05-09T15:07:15.167Z,8.27
2023-05-09T15:09:43.184Z,7.45
2023-05-09T15:12:11.283Z,6.85
2023-05-09T15:14:39.536Z,6.63
2023-05-09T15:17:08.000Z,7.93
2023-05-09T15:19:36.547Z,5.25
2023-05-09T15:22:06.072Z,6.97
2023-05-09T15:24:35.587Z,5.68
2023-05-09T15:27:03.622Z,5.13
2023-05-09T15:29:31.823Z,3.63
2023-05-09T15:31:59.861Z,4.40
2023-05-09T15:34:28.135Z,9.50
2023-05-09T15:36:56.246Z,5.95
2023-05-09T15:39:24.521Z,8.68
2023-05-09T15:41:54.018Z,7.75
2023-05-09T15:44:22.092Z,3.33
2023-05-09T15:46:50.270Z,4.78
2023-05-09T15:49:18.460Z,6.50
2023-05-09T15:51:46.577Z,5.05
2023-05-09T15:54:15.094Z,7.20
2023-05-09T15:56:43.277Z,5.72
2023-05-09T15:59:12.876Z,7.20
2023-05-09T16:01:41.268Z,5.38
2023-05-09T16:04:13.927Z,4.72
2023-05-09T16:06:52.739Z,5.88
2023-05-09T16:09:57.425Z,3.88
2023-05-09T16:12:54.444Z,6.10
2023-05-09T16:15:37.350Z,2.40
2023-05-09T16:18:38.494Z,1.98
2023-05-09T16:23:59.862Z,2.97
2023-05-09T16:27:09.233Z,5.18
2023-05-09T16:32:48.722Z,4.63
2023-05-09T16:35:41.037Z,3.85
2023-05-09T16:45:48.106Z,3.58
2023-05-09T16:49:06.826Z,4.47
2023-05-09T16:52:41.962Z,6.97
2023-05-09T17:00:27.224Z,1.30
2023-05-09T17:08:31.754Z,3.95
2023-05-09T17:11:38.127Z,2.55
2023-05-09T17:14:34.754Z,1.02
2023-05-09T17:17:26.092Z,4.30
2023-05-09T17:24:27.162Z,6.80
2023-05-09T17:27:23.186Z,1.52
2023-05-09T17:30:31.090Z,1.70
2023-05-09T17:33:35.609Z,2.63
2023-05-09T17:36:07.751Z,1.40
2023-05-09T17:38:36.014Z,2.03
2023-05-09T17:44:47.262Z,2.65
2023-05-09T17:47:18.667Z,3.08
2023-05-09T17:50:07.683Z,2.28
2023-05-09T17:52:45.141Z,2.58
2023-05-09T17:59:23.657Z,2.50
2023-05-09T18:07:43.511Z,3.85
2023-05-09T18:10:50.186Z,4.10
2023-05-09T18:13:20.062Z,1.50
2023-05-09T18:16:02.915Z,4.20
2023-05-09T18:19:01.699Z,3.38
2023-05-09T18:21:32.309Z,3.08
2023-05-09T18:24:04.479Z,2.22
2023-05-09T18:26:33.065Z,3.55
2023-05-09T18:29:09.653Z,4.72
2023-05-09T18:31:39.896Z,3.10
2023-05-09T18:34:12.576Z,2.15
2023-05-09T18:36:41.228Z,1.80
2023-05-09T18:39:22.847Z,3.05
2023-05-09T18:41:51.341Z,3.58
2023-05-09T18:44:19.565Z,4.93
2023-05-09T18:46:50.225Z,5.93
2023-05-09T18:49:28.254Z,4.05
2023-05-09T18:52:00.227Z,2.05
2023-05-09T18:54:35.591Z,3.95
2023-05-09T18:57:08.084Z,3.72
2023-05-09T18:59:37.192Z,4.07
2023-05-09T19:02:14.446Z,5.07
2023-05-09T19:04:48.879Z,5.85
2023-05-09T19:07:25.864Z,3.70
2023-05-09T19:10:01.226Z,2.25
2023-05-09T19:12:38.618Z,2.88
2023-05-09T19:15:11.799Z,3.55
2023-05-09T19:17:43.745Z,1.92
2023-05-09T19:20:17.176Z,2.92
2023-05-09T19:23:13.288Z,4.82
2023-05-09T19:25:41.898Z,2.13
2023-05-09T19:28:11.338Z,2.15
2023-05-09T19:30:45.519Z,2.42
2023-05-09T19:38:00.398Z,2.70
2023-05-09T19:40:41.083Z,3.85
2023-05-09T19:43:09.816Z,4.35
2023-05-09T19:45:40.501Z,4.78
2023-05-09T19:51:21.062Z,2.90
2023-05-09T19:55:15.985Z,5.95
2023-05-09T20:12:50.712Z,4.00
2023-05-09T20:16:20.957Z,1.98
2023-05-09T20:27:00.166Z,4.13
2023-05-09T20:29:34.620Z,5.63
2023-05-09T20:32:22.572Z,4.45
2023-05-09T20:35:04.231Z,4.40
2023-05-09T20:38:07.626Z,4.82
2023-05-09T20:40:54.051Z,4.63
2023-05-09T20:43:22.623Z,6.40
2023-05-09T20:45:54.213Z,3.47
2023-05-09T20:48:38.536Z,4.88
2023-05-09T20:51:19.691Z,5.95
2023-05-09T20:54:49.948Z,4.45
2023-05-09T20:57:59.452Z,4.30
2023-05-09T21:01:33.057Z,4.75
2023-05-09T21:04:09.932Z,5.53
2023-05-09T21:06:38.884Z,5.43
2023-05-09T21:09:29.523Z,4.78
2023-05-09T21:12:21.165Z,5.50
2023-05-09T21:15:07.191Z,5.47
2023-05-09T21:22:46.688Z,4.75
2023-05-09T21:25:31.883Z,4.00
2023-05-09T21:28:30.259Z,5.78
2023-05-09T21:32:17.502Z,4.93
2023-05-09T21:35:36.952Z,4.30
2023-05-09T21:41:25.935Z,6.28
2023-05-09T21:44:05.949Z,4.78
2023-05-09T21:46:44.296Z,6.28
2023-05-09T21:49:17.745Z,3.80
2023-05-09T21:51:46.205Z,4.50
2023-05-09T21:54:14.762Z,7.22
2023-05-09T21:57:09.374Z,5.13
2023-05-09T21:59:59.171Z,4.68
2023-05-09T22:02:35.255Z,3.58
2023-05-09T22:05:28.697Z,6.05
2023-05-09T22:12:30.682Z,5.20
2023-05-09T22:16:04.773Z,2.67
2023-05-09T22:23:03.299Z,5.13
2023-05-09T22:25:36.591Z,6.88
2023-05-09T22:44:24.297Z,7.07
2023-05-09T23:05:10.767Z,4.30
2023-05-09T23:09:53.801Z,2.65
